Pagina principale
METAR-TAF:

METAR-TAF

Aeroporti :

Waterbury-Oxford Airport

Oxford, Connecticut, Stati Uniti

latitudine: 41-29N, longitudine: 073-08W, altezza: 222 m

Osservazione

Il bollettino è stato emesso 19 minuti fa, alle 02:51 UTC
Vento calmo
Temperature 5°C
Umidità 81%
Pressione 1022 hPa
Cielo coperto ad un'altezza di 7000 ft

METAR: KOXC 230251Z AUTO 00000KT OVC070 05/02 A3017 RMK AO2 SLP234 T00500017 50000 PWINO $

Ora: 23:10 (03:10 UTC)


TAF: mancante

Osservazioni e previsioni meteorologiche di più di 4000 aeroporti (messaggi METAR e TAF).

Le stazioni disponibili sono rappresentate dai dischi gialli e rossi sulla carta.

Puntare il mouse per vedere il nome della stazione.

Clicca sopra per visualizzare le osservazioni e previsioni meteorologiche.

Per cambiare la mappa : fare clic sui pulsanti verdi con una croce nera per ingrandire, il pulsante verde con un trattino per diminuire, o sulla freccia verde per le mappe adiacenti.


METAR-TAF: